Time;durP1;ratioP1;P1;durP2;ratioP2;P2;SDS_P1;SDS_P2;PMS_P1;PMS_P2;Temp;Humidity;BMP_temperature;BMP_pressure;BME280_temperature;BME280_humidity;BME280_pressure;Samples;Min_cycle;Max_cycle;Signal;HPM_P1;HPM_P2
2022/01/04 00:01:24;;;;;;;39.85;5.45;;;7.30;81.20;;;;;;4132408;28;20422;-73
2022/01/04 00:03:24;;;;;;;47.55;5.13;;;7.30;81.20;;;;;;4129513;28;20034;-73
2022/01/04 00:05:25;;;;;;;37.92;4.55;;;7.30;81.30;;;;;;4126066;28;20487;-73
2022/01/04 00:07:26;;;;;;;48.42;5.78;;;7.30;81.30;;;;;;4123288;28;20042;-73
2022/01/04 00:09:26;;;;;;;35.05;5.13;;;7.30;81.40;;;;;;4129325;28;20035;-72
2022/01/04 00:13:46;;;;;;;38.15;5.28;;;7.30;81.40;;;;;;4118211;28;20026;-72
2022/01/04 00:15:47;;;;;;;46.72;5.80;;;7.30;81.40;;;;;;4132296;28;20162;-72
2022/01/04 00:17:47;;;;;;;34.20;4.43;;;7.30;81.40;;;;;;4133191;28;20482;-72
2022/01/04 00:19:48;;;;;;;47.00;5.68;;;7.30;81.40;;;;;;4096898;28;20035;-73
2022/01/04 00:21:49;;;;;;;32.83;5.28;;;7.30;81.40;;;;;;4129728;28;20375;-72
2022/01/04 00:23:49;;;;;;;43.33;4.82;;;7.20;81.40;;;;;;4115390;28;20034;-73
2022/01/04 00:25:50;;;;;;;35.30;6.82;;;7.20;81.50;;;;;;4133502;28;20061;-72
2022/01/04 00:27:51;;;;;;;51.95;6.82;;;7.20;81.60;;;;;;4133348;28;20026;-73
2022/01/04 00:29:51;;;;;;;35.38;5.38;;;7.20;81.60;;;;;;4130673;28;20109;-73
2022/01/04 00:31:52;;;;;;;36.97;4.75;;;7.20;81.70;;;;;;4129450;28;20494;-73
2022/01/04 00:33:52;;;;;;;34.10;4.80;;;7.20;81.80;;;;;;4133587;28;20600;-72
2022/01/04 00:35:53;;;;;;;34.05;3.60;;;7.10;81.80;;;;;;4131228;28;20033;-73
2022/01/04 00:37:54;;;;;;;33.67;4.15;;;7.10;81.90;;;;;;4126267;28;20027;-73
2022/01/04 00:39:54;;;;;;;50.83;4.10;;;7.10;81.90;;;;;;4131643;28;20038;-72
2022/01/04 00:41:55;;;;;;;41.08;5.65;;;7.20;82.00;;;;;;4131174;28;20030;-73
2022/01/04 00:43:56;;;;;;;41.33;4.28;;;7.10;82.00;;;;;;4131586;28;20038;-72
2022/01/04 00:45:56;;;;;;;34.28;4.82;;;7.10;82.10;;;;;;4128751;28;20074;-73
2022/01/04 00:49:58;;;;;;;26.48;4.47;;;7.10;81.90;;;;;;4118530;28;20322;-73
2022/01/04 00:52:01;;;;;;;26.30;3.90;;;7.10;81.90;;;;;;4128517;28;20073;-73
2022/01/04 00:54:01;;;;;;;42.15;4.40;;;7.10;81.90;;;;;;4129477;28;20110;-73
2022/01/04 00:56:02;;;;;;;34.33;4.45;;;7.10;81.90;;;;;;4128701;28;20215;-72
2022/01/04 00:58:03;;;;;;;37.22;4.28;;;7.10;81.90;;;;;;4145162;28;20104;-73
2022/01/04 01:00:04;;;;;;;34.90;5.75;;;7.10;81.90;;;;;;4129004;28;20030;-73
2022/01/04 01:02:05;;;;;;;36.78;4.43;;;7.10;82.00;;;;;;4111262;28;20039;-73
2022/01/04 01:04:06;;;;;;;38.63;3.65;;;7.10;82.10;;;;;;4123668;28;20089;-73
2022/01/04 01:06:07;;;;;;;19.60;2.70;;;7.10;82.20;;;;;;4112853;28;20039;-73
2022/01/04 01:08:08;;;;;;;11.13;1.15;;;7.00;82.00;;;;;;4124989;28;20034;-73
2022/01/04 01:12:17;;;;;;;9.38;1.45;;;7.00;80.50;;;;;;4127638;28;20031;-73
2022/01/04 01:14:18;;;;;;;8.60;1.08;;;6.80;79.80;;;;;;4128663;28;20040;-73
2022/01/04 01:16:18;;;;;;;7.35;0.82;;;6.80;79.60;;;;;;4129862;28;20034;-73
2022/01/04 01:18:19;;;;;;;6.05;1.10;;;6.70;79.40;;;;;;4119331;28;20181;-73
2022/01/04 01:20:20;;;;;;;9.25;0.95;;;6.70;79.50;;;;;;4116606;28;20049;-73
2022/01/04 01:22:20;;;;;;;5.88;0.82;;;6.60;79.70;;;;;;4143014;28;20040;-73
2022/01/04 01:24:21;;;;;;;7.22;0.98;;;6.60;80.00;;;;;;4123767;28;20110;-73
2022/01/04 01:26:22;;;;;;;7.95;1.63;;;6.50;80.20;;;;;;4109647;28;20229;-73
2022/01/04 01:28:23;;;;;;;8.82;1.33;;;6.40;80.40;;;;;;4144740;28;20037;-73
2022/01/04 01:30:24;;;;;;;7.50;0.68;;;6.40;80.70;;;;;;4128568;28;20058;-73
2022/01/04 01:32:25;;;;;;;4.45;0.85;;;6.40;80.80;;;;;;4121220;28;20030;-72
2022/01/04 01:34:26;;;;;;;6.90;1.00;;;6.40;81.70;;;;;;4103883;28;20097;-73
2022/01/04 01:36:27;;;;;;;4.43;0.80;;;6.30;81.00;;;;;;4118873;28;20037;-73
2022/01/04 01:38:27;;;;;;;4.88;0.85;;;6.30;81.30;;;;;;4111834;28;20479;-72
2022/01/04 01:40:28;;;;;;;7.10;1.00;;;6.30;81.30;;;;;;4127750;28;20031;-72
2022/01/04 01:42:29;;;;;;;10.60;1.05;;;6.30;81.40;;;;;;4126649;28;20109;-73
2022/01/04 01:44:31;;;;;;;7.95;1.05;;;6.30;81.60;;;;;;4127535;28;20026;-73
2022/01/04 01:46:32;;;;;;;8.15;1.10;;;6.30;81.70;;;;;;4127818;28;20033;-73
2022/01/04 01:48:32;;;;;;;8.85;1.35;;;6.30;81.80;;;;;;4128369;28;20030;-72
2022/01/04 01:50:33;;;;;;;9.57;1.00;;;6.30;81.90;;;;;;4128392;28;20081;-73
2022/01/04 01:52:34;;;;;;;7.95;1.20;;;6.30;81.90;;;;;;4104829;28;20054;-72
2022/01/04 01:54:34;;;;;;;9.30;1.27;;;6.30;82.00;;;;;;4111846;28;20019;-73
2022/01/04 01:56:35;;;;;;;5.78;0.85;;;6.30;82.00;;;;;;4128010;28;20037;-73
2022/01/04 01:58:35;;;;;;;9.18;1.25;;;6.30;82.10;;;;;;4128930;28;20041;-73
2022/01/04 02:00:36;;;;;;;14.38;1.17;;;6.30;82.10;;;;;;4125576;28;20038;-73
2022/01/04 02:02:37;;;;;;;9.82;1.38;;;6.30;82.10;;;;;;4125265;28;20035;-73
2022/01/04 02:04:37;;;;;;;10.10;1.58;;;6.30;82.20;;;;;;4130002;28;20037;-73
2022/01/04 02:06:38;;;;;;;15.25;1.92;;;6.30;82.20;;;;;;4131529;28;20034;-73
2022/01/04 02:08:38;;;;;;;6.97;1.33;;;6.30;82.20;;;;;;4121984;28;20302;-73
2022/01/04 02:10:39;;;;;;;9.25;1.25;;;6.30;82.30;;;;;;4127966;28;20034;-72
2022/01/04 02:12:44;;;;;;;11.32;1.35;;;6.30;82.30;;;;;;4094526;28;20186;-73
2022/01/04 02:14:51;;;;;;;7.22;1.10;;;6.30;82.40;;;;;;4109429;28;20114;-73
2022/01/04 02:16:51;;;;;;;9.60;1.33;;;6.30;82.40;;;;;;4121846;28;20034;-73
2022/01/04 02:18:58;;;;;;;10.45;1.58;;;6.30;82.50;;;;;;4130635;28;20025;-73
2022/01/04 02:20:58;;;;;;;10.50;1.13;;;6.30;82.50;;;;;;4125675;28;20022;-73
2022/01/04 02:22:59;;;;;;;8.07;1.15;;;6.20;82.50;;;;;;4111649;28;20049;-73
2022/01/04 02:25:00;;;;;;;7.05;1.17;;;6.30;82.60;;;;;;4126954;28;20031;-73
2022/01/04 02:27:00;;;;;;;7.70;0.95;;;6.20;82.60;;;;;;4103958;28;20082;-73
2022/01/04 02:29:02;;;;;;;5.43;0.75;;;6.20;82.60;;;;;;4111639;28;20027;-73
2022/01/04 02:31:02;;;;;;;10.23;1.05;;;6.20;82.70;;;;;;4111231;28;20065;-73
2022/01/04 02:33:03;;;;;;;7.05;0.90;;;6.20;82.70;;;;;;4126210;28;20429;-73
2022/01/04 02:35:04;;;;;;;8.93;1.17;;;6.20;82.70;;;;;;4120878;28;20054;-73
2022/01/04 02:37:05;;;;;;;6.28;0.98;;;6.20;82.80;;;;;;4125835;28;20415;-73
2022/01/04 02:39:05;;;;;;;6.05;0.80;;;6.20;82.70;;;;;;4124580;28;20037;-73
2022/01/04 02:41:06;;;;;;;3.30;0.80;;;6.20;82.70;;;;;;4127147;28;20034;-73
2022/01/04 02:43:06;;;;;;;3.28;0.60;;;6.20;82.70;;;;;;4119348;28;20026;-73
2022/01/04 02:45:08;;;;;;;5.03;0.75;;;6.20;82.70;;;;;;4121983;28;20177;-73
2022/01/04 02:47:08;;;;;;;5.97;0.77;;;6.20;82.70;;;;;;4127350;28;20080;-72
2022/01/04 02:49:09;;;;;;;7.25;0.60;;;6.20;82.70;;;;;;4126925;28;20644;-73
2022/01/04 02:51:13;;;;;;;8.60;0.80;;;6.20;82.70;;;;;;4118647;28;20073;-73
2022/01/04 02:53:13;;;;;;;4.70;0.80;;;6.20;82.60;;;;;;4108750;28;20113;-73
2022/01/04 02:55:14;;;;;;;8.02;1.25;;;6.20;82.70;;;;;;4141038;28;20513;-73
2022/01/04 02:57:15;;;;;;;5.05;0.82;;;6.20;82.60;;;;;;4143516;28;20026;-73
2022/01/04 02:59:16;;;;;;;4.60;0.70;;;6.20;82.60;;;;;;4116495;28;20038;-73
2022/01/04 03:01:16;;;;;;;9.77;0.93;;;6.20;82.60;;;;;;4111252;28;20027;-73
2022/01/04 03:03:17;;;;;;;5.70;0.80;;;6.20;82.60;;;;;;4120461;28;20088;-73
2022/01/04 03:05:18;;;;;;;3.22;0.63;;;6.20;82.60;;;;;;4125389;28;20064;-73
2022/01/04 03:07:18;;;;;;;5.43;1.05;;;6.20;82.50;;;;;;4142230;28;20042;-73
2022/01/04 03:09:19;;;;;;;5.18;1.00;;;6.20;82.50;;;;;;4126879;28;20379;-73
2022/01/04 03:11:20;;;;;;;5.68;0.80;;;6.10;82.30;;;;;;4118297;28;20046;-73
2022/01/04 03:13:20;;;;;;;4.32;0.68;;;6.10;82.30;;;;;;4124027;28;20113;-72
2022/01/04 03:15:21;;;;;;;2.08;0.57;;;6.10;82.20;;;;;;4125660;28;20410;-73
2022/01/04 03:17:21;;;;;;;3.90;0.60;;;6.10;82.20;;;;;;4127490;28;20478;-73
2022/01/04 03:19:22;;;;;;;2.95;0.40;;;6.10;82.20;;;;;;4124013;28;20054;-72
2022/01/04 03:21:23;;;;;;;2.38;0.30;;;6.00;82.20;;;;;;4126941;28;20026;-73
2022/01/04 03:23:23;;;;;;;3.15;0.38;;;6.10;82.20;;;;;;4126598;28;20364;-72
2022/01/04 03:25:24;;;;;;;1.98;0.20;;;6.10;82.20;;;;;;4126762;28;20030;-73
2022/01/04 03:27:24;;;;;;;0.80;0.20;;;6.00;82.10;;;;;;4124434;28;20424;-72
2022/01/04 03:29:25;;;;;;;3.53;0.38;;;6.10;82.10;;;;;;4122403;28;20150;-72
2022/01/04 03:31:27;;;;;;;1.77;0.30;;;6.10;82.00;;;;;;4124986;28;20070;-73
2022/01/04 03:33:27;;;;;;;1.52;0.40;;;6.00;81.90;;;;;;4126762;28;20080;-73
2022/01/04 03:35:28;;;;;;;2.70;0.30;;;6.10;82.60;;;;;;4125040;28;20054;-73
2022/01/04 03:37:28;;;;;;;3.47;0.35;;;6.10;81.90;;;;;;4132989;28;20033;-73
2022/01/04 03:39:29;;;;;;;2.30;0.28;;;6.00;81.80;;;;;;4130132;28;20049;-72
2022/01/04 03:41:30;;;;;;;2.35;0.22;;;6.10;81.80;;;;;;4125882;28;20041;-73
2022/01/04 03:43:32;;;;;;;4.63;0.43;;;6.10;81.80;;;;;;4119902;28;20030;-72
2022/01/04 03:45:33;;;;;;;2.13;0.30;;;6.10;81.70;;;;;;4112071;28;20034;-72
2022/01/04 03:47:33;;;;;;;1.30;0.20;;;6.10;81.70;;;;;;4112762;28;20513;-73
2022/01/04 03:49:34;;;;;;;5.20;0.20;;;6.10;81.70;;;;;;4126053;28;20040;-73
2022/01/04 03:51:35;;;;;;;2.03;0.30;;;6.10;81.70;;;;;;4153350;23;20038;-83
2022/01/04 03:53:36;;;;;;;1.65;1.02;;;6.10;81.70;;;;;;4125652;28;20034;-82
2022/01/04 03:55:36;;;;;;;5.10;0.50;;;6.10;81.70;;;;;;4129898;28;20154;-82
2022/01/04 03:57:37;;;;;;;1.60;0.30;;;6.10;81.60;;;;;;4150050;28;20030;-82
2022/01/04 03:59:37;;;;;;;2.85;0.40;;;6.10;81.60;;;;;;4166388;28;20361;-82
2022/01/04 04:01:38;;;;;;;1.55;0.35;;;6.10;81.50;;;;;;4150142;28;20038;-82
2022/01/04 04:03:39;;;;;;;3.45;0.47;;;6.10;81.50;;;;;;4150994;28;20026;-82
2022/01/04 04:05:39;;;;;;;3.58;0.40;;;6.10;81.50;;;;;;4145237;28;20725;-83
2022/01/04 04:07:40;;;;;;;3.88;0.40;;;6.10;81.60;;;;;;4134765;28;20030;-82
2022/01/04 04:09:41;;;;;;;3.10;0.50;;;6.10;81.60;;;;;;4146923;28;20064;-82
2022/01/04 04:11:41;;;;;;;3.25;0.28;;;6.10;81.60;;;;;;4144535;28;20092;-82
2022/01/04 04:13:42;;;;;;;3.03;0.30;;;6.20;81.60;;;;;;4137866;28;20022;-82
2022/01/04 04:15:43;;;;;;;6.07;0.40;;;6.10;81.60;;;;;;4161155;28;20486;-82
2022/01/04 04:17:47;;;;;;;3.65;0.50;;;6.10;81.60;;;;;;4127943;28;20029;-82
2022/01/04 04:19:47;;;;;;;1.88;0.40;;;6.10;81.70;;;;;;4146194;28;20083;-82
2022/01/04 04:21:48;;;;;;;4.72;0.57;;;6.10;81.80;;;;;;4148285;28;20038;-82
2022/01/04 04:23:48;;;;;;;5.93;0.70;;;6.10;81.80;;;;;;4141099;28;20058;-82
2022/01/04 04:25:49;;;;;;;3.42;0.57;;;6.10;81.90;;;;;;4132164;28;20115;-82
2022/01/04 04:27:50;;;;;;;4.15;0.45;;;6.10;82.00;;;;;;4149249;28;20052;-82
2022/01/04 04:29:50;;;;;;;0.75;0.28;;;6.00;82.00;;;;;;4149782;28;20052;-82
2022/01/04 04:31:51;;;;;;;1.90;0.43;;;6.00;82.10;;;;;;4115132;28;20366;-82
2022/01/04 04:33:51;;;;;;;3.35;0.63;;;6.00;82.10;;;;;;4154513;28;20083;-82
2022/01/04 04:35:52;;;;;;;2.50;0.40;;;6.00;82.20;;;;;;4163915;28;20033;-82
2022/01/04 04:37:52;;;;;;;3.20;0.50;;;6.00;82.30;;;;;;4147181;28;20021;-82
2022/01/04 04:39:53;;;;;;;1.92;0.30;;;6.10;82.40;;;;;;4147038;28;20026;-82
2022/01/04 04:41:54;;;;;;;8.38;0.75;;;6.00;82.40;;;;;;4151234;28;20503;-82
2022/01/04 04:43:54;;;;;;;3.15;0.40;;;6.00;82.40;;;;;;4152371;28;20075;-82
2022/01/04 04:45:55;;;;;;;3.95;0.52;;;6.00;82.50;;;;;;4152102;28;20556;-83
2022/01/04 04:47:55;;;;;;;2.30;0.28;;;6.00;82.50;;;;;;4150240;28;20108;-82
2022/01/04 04:49:56;;;;;;;2.72;0.32;;;6.00;82.40;;;;;;4130271;28;20457;-82
2022/01/04 04:51:59;;;;;;;3.25;0.45;;;6.00;82.10;;;;;;4150806;28;20038;-83
2022/01/04 04:53:59;;;;;;;1.63;0.40;;;6.00;81.50;;;;;;4165001;28;20407;-83
2022/01/04 04:56:00;;;;;;;2.30;0.40;;;6.00;81.00;;;;;;4130753;28;20027;-82
2022/01/04 04:58:01;;;;;;;3.15;0.50;;;5.90;80.60;;;;;;4146578;28;20402;-82
2022/01/04 05:00:02;;;;;;;2.33;0.40;;;5.90;80.30;;;;;;4147882;28;20427;-82
2022/01/04 05:02:03;;;;;;;3.83;0.35;;;5.80;79.90;;;;;;4130067;28;20030;-82
2022/01/04 05:04:03;;;;;;;1.95;0.60;;;5.70;79.70;;;;;;4134103;28;20033;-82
2022/01/04 05:06:04;;;;;;;0.77;0.10;;;5.60;79.60;;;;;;4163712;28;20107;-82
2022/01/04 05:08:04;;;;;;;2.58;0.47;;;5.60;79.70;;;;;;4161562;28;20415;-82
2022/01/04 05:10:06;;;;;;;3.13;0.20;;;5.50;79.70;;;;;;4144542;28;20062;-82
2022/01/04 05:12:07;;;;;;;1.95;0.40;;;5.40;79.80;;;;;;4146975;28;20033;-82
2022/01/04 05:14:08;;;;;;;1.77;0.20;;;5.40;79.80;;;;;;4164125;28;20021;-82
2022/01/04 05:16:09;;;;;;;4.22;0.57;;;5.30;80.00;;;;;;4145185;28;20036;-82
2022/01/04 05:18:09;;;;;;;3.90;0.30;;;5.20;80.00;;;;;;4139975;28;20068;-82
2022/01/04 05:20:10;;;;;;;1.92;0.30;;;5.20;80.30;;;;;;4140342;28;20106;-82
2022/01/04 05:22:10;;;;;;;4.40;0.38;;;5.20;80.40;;;;;;4162895;28;20064;-82
2022/01/04 05:24:12;;;;;;;2.15;0.25;;;5.20;80.50;;;;;;4162055;28;20084;-82
2022/01/04 05:26:12;;;;;;;3.33;0.35;;;5.10;80.60;;;;;;4148561;28;20113;-82
2022/01/04 05:28:13;;;;;;;4.65;0.65;;;5.10;80.70;;;;;;4146038;28;20589;-82
2022/01/04 05:30:13;;;;;;;0.98;0.20;;;5.10;80.80;;;;;;4137363;28;20034;-82
2022/01/04 05:32:14;;;;;;;5.28;0.40;;;5.10;80.90;;;;;;4129464;28;20042;-82
2022/01/04 05:34:14;;;;;;;1.85;0.25;;;5.00;80.90;;;;;;4113827;28;20109;-82
2022/01/04 05:36:15;;;;;;;2.65;0.40;;;5.00;81.00;;;;;;4142018;28;20034;-82
2022/01/04 05:38:16;;;;;;;1.95;0.32;;;5.00;81.10;;;;;;4117100;28;20031;-82
2022/01/04 05:40:16;;;;;;;3.65;0.60;;;5.00;81.20;;;;;;4139714;28;20119;-82
2022/01/04 05:42:17;;;;;;;2.53;0.40;;;4.90;81.20;;;;;;4146575;28;20034;-82
2022/01/04 05:44:17;;;;;;;0.90;0.20;;;4.90;81.30;;;;;;4145483;28;20048;-82
2022/01/04 05:46:18;;;;;;;7.82;0.40;;;4.90;81.30;;;;;;4157447;28;20065;-82
2022/01/04 05:48:20;;;;;;;1.65;0.30;;;4.90;81.40;;;;;;4130130;28;20176;-82
2022/01/04 05:50:21;;;;;;;2.22;0.30;;;4.90;81.60;;;;;;4130293;28;20029;-82
2022/01/04 05:52:21;;;;;;;3.40;0.60;;;4.90;81.70;;;;;;4122713;28;20405;-82
2022/01/04 05:54:22;;;;;;;3.70;0.30;;;4.80;81.70;;;;;;4130282;28;20035;-82
2022/01/04 05:56:22;;;;;;;3.00;0.30;;;4.80;81.80;;;;;;4158463;28;20033;-82
2022/01/04 05:58:23;;;;;;;0.52;0.10;;;4.80;81.90;;;;;;4162846;28;20036;-83
2022/01/04 06:00:23;;;;;;;4.28;0.45;;;4.80;81.90;;;;;;4151453;28;20101;-82
2022/01/04 06:02:25;;;;;;;4.30;0.20;;;4.80;81.90;;;;;;4129510;28;20053;-82
2022/01/04 06:04:26;;;;;;;2.63;0.30;;;4.80;82.00;;;;;;4113890;28;20039;-82
2022/01/04 06:06:26;;;;;;;3.67;0.40;;;4.80;82.00;;;;;;4144583;28;20041;-82
2022/01/04 06:08:32;;;;;;;4.00;0.38;;;4.80;82.00;;;;;;4127934;28;20050;-82
2022/01/04 06:10:38;;;;;;;1.98;0.22;;;4.80;82.00;;;;;;4125691;28;20042;-82
2022/01/04 06:14:52;;;;;;;4.53;0.38;;;4.70;82.00;;;;;;4129913;28;20030;-82
2022/01/04 06:16:52;;;;;;;1.27;0.20;;;4.70;82.00;;;;;;4146346;28;20104;-82
2022/01/04 06:18:53;;;;;;;3.17;0.40;;;4.70;82.10;;;;;;4121559;28;20030;-82
2022/01/04 06:20:55;;;;;;;4.35;0.52;;;4.60;82.00;;;;;;4146673;28;20107;-82
2022/01/04 06:22:55;;;;;;;2.95;0.47;;;4.60;82.00;;;;;;4108741;28;20082;-82
2022/01/04 06:24:56;;;;;;;3.60;0.50;;;4.60;81.90;;;;;;4147143;28;20101;-82
2022/01/04 06:26:57;;;;;;;2.45;0.25;;;4.60;81.90;;;;;;4161444;28;20071;-82
2022/01/04 06:28:57;;;;;;;5.05;0.47;;;4.60;82.00;;;;;;4162773;28;20065;-83
2022/01/04 06:30:58;;;;;;;3.20;0.30;;;4.60;82.00;;;;;;4130881;28;20155;-82
2022/01/04 06:32:59;;;;;;;2.53;0.47;;;4.60;82.00;;;;;;4127980;28;20023;-82
2022/01/04 06:34:59;;;;;;;8.45;0.85;;;4.60;82.10;;;;;;4162583;28;20038;-82
2022/01/04 06:37:00;;;;;;;1.42;0.38;;;4.60;82.10;;;;;;4150207;28;20026;-82
2022/01/04 06:39:00;;;;;;;4.75;0.77;;;4.60;82.10;;;;;;4148248;28;20053;-82
2022/01/04 06:41:01;;;;;;;5.10;0.60;;;4.70;82.20;;;;;;4146641;28;20026;-82
2022/01/04 06:43:01;;;;;;;6.53;0.57;;;4.60;82.00;;;;;;4145247;28;20030;-82
2022/01/04 06:45:03;;;;;;;2.80;0.50;;;4.60;82.10;;;;;;4130343;28;20034;-82
2022/01/04 06:47:04;;;;;;;4.10;0.40;;;4.70;82.20;;;;;;4149320;28;20067;-82
2022/01/04 06:49:05;;;;;;;5.82;0.60;;;4.70;82.30;;;;;;4126125;28;20500;-82
2022/01/04 06:51:05;;;;;;;3.65;0.40;;;4.70;82.20;;;;;;4152592;28;20549;-82
2022/01/04 06:53:06;;;;;;;2.33;0.20;;;4.80;82.30;;;;;;4146882;28;20030;-82
2022/01/04 06:55:07;;;;;;;1.90;0.30;;;4.70;82.20;;;;;;4146415;28;20484;-82
2022/01/04 06:57:08;;;;;;;2.15;0.40;;;4.80;82.20;;;;;;4145966;28;20037;-82
2022/01/04 06:59:08;;;;;;;4.97;0.52;;;4.80;82.10;;;;;;4134189;28;20464;-82
2022/01/04 07:01:09;;;;;;;1.60;0.40;;;4.80;82.10;;;;;;4117835;28;20117;-82
2022/01/04 07:03:09;;;;;;;2.00;0.17;;;4.80;82.00;;;;;;4130194;28;20369;-82
2022/01/04 07:05:10;;;;;;;4.43;0.47;;;4.80;81.90;;;;;;4163522;28;20029;-82
2022/01/04 07:07:11;;;;;;;2.47;0.50;;;4.80;81.80;;;;;;4160885;28;20037;-82
2022/01/04 07:09:11;;;;;;;1.60;0.32;;;4.80;81.80;;;;;;4159667;28;20022;-82
2022/01/04 07:11:12;;;;;;;3.75;0.52;;;4.80;81.80;;;;;;4145954;28;20096;-82
2022/01/04 07:13:12;;;;;;;3.00;0.70;;;4.90;81.80;;;;;;4146380;28;20032;-82
2022/01/04 07:15:13;;;;;;;3.03;0.35;;;4.90;81.80;;;;;;4113276;28;20099;-82
2022/01/04 07:17:13;;;;;;;1.15;0.30;;;4.90;81.80;;;;;;4152883;28;20138;-82
2022/01/04 07:19:15;;;;;;;2.92;0.30;;;4.90;81.80;;;;;;4154098;28;20491;-82
2022/01/04 07:21:16;;;;;;;3.15;0.45;;;4.90;81.70;;;;;;4145835;28;20033;-82
2022/01/04 07:23:17;;;;;;;1.52;0.30;;;5.00;81.70;;;;;;4129926;28;20155;-82
2022/01/04 07:25:18;;;;;;;3.63;0.40;;;5.00;81.70;;;;;;4146571;28;20749;-82
2022/01/04 07:27:18;;;;;;;4.05;0.50;;;5.00;81.60;;;;;;4145526;28;20045;-83
2022/01/04 07:29:19;;;;;;;2.45;0.40;;;5.00;81.60;;;;;;4138871;28;20030;-83
2022/01/04 07:31:19;;;;;;;3.70;0.30;;;5.10;81.50;;;;;;4150615;28;20042;-82
2022/01/04 07:33:20;;;;;;;1.98;0.40;;;5.10;81.50;;;;;;4139305;28;20022;-83
2022/01/04 07:35:21;;;;;;;4.05;0.30;;;5.10;81.50;;;;;;4150066;28;20356;-82
2022/01/04 07:37:21;;;;;;;1.33;0.30;;;5.10;81.40;;;;;;4148894;28;20049;-82
2022/01/04 07:39:22;;;;;;;0.77;0.25;;;5.10;81.40;;;;;;4146245;28;20614;-82
2022/01/04 07:41:22;;;;;;;2.88;0.75;;;5.20;81.40;;;;;;4132699;28;20030;-82
2022/01/04 07:43:23;;;;;;;0.82;0.20;;;5.20;81.40;;;;;;4154341;28;20077;-82
2022/01/04 07:45:24;;;;;;;3.65;0.30;;;5.20;81.30;;;;;;4149650;28;20520;-82
2022/01/04 07:47:24;;;;;;;4.22;0.55;;;5.20;81.20;;;;;;4138085;23;20038;-72
2022/01/04 07:49:25;;;;;;;4.63;0.40;;;5.30;81.20;;;;;;4143832;28;20026;-72
2022/01/04 07:51:26;;;;;;;2.42;0.30;;;5.30;81.80;;;;;;4139705;28;20040;-72
2022/01/04 07:53:26;;;;;;;1.58;0.40;;;5.30;80.90;;;;;;4152960;28;20030;-72
2022/01/04 07:55:27;;;;;;;2.40;0.30;;;5.30;80.70;;;;;;4155928;28;20025;-72
2022/01/04 07:57:27;;;;;;;2.75;0.40;;;5.30;80.50;;;;;;4140333;28;20077;-72
2022/01/04 07:59:30;;;;;;;6.13;0.65;;;5.30;80.50;;;;;;4143692;28;20030;-72
2022/01/04 08:01:31;;;;;;;2.88;0.43;;;5.30;80.40;;;;;;4142634;28;20029;-72
2022/01/04 08:03:32;;;;;;;2.97;0.52;;;5.30;80.30;;;;;;4143046;28;20053;-72
2022/01/04 08:05:32;;;;;;;2.55;0.52;;;5.30;80.20;;;;;;4143301;28;20053;-72
2022/01/04 08:07:33;;;;;;;3.08;0.40;;;5.30;80.20;;;;;;4141941;28;20528;-72
2022/01/04 08:09:33;;;;;;;2.92;0.60;;;5.30;80.10;;;;;;4142817;28;20025;-72
2022/01/04 08:11:34;;;;;;;2.72;0.30;;;5.30;80.10;;;;;;4143112;28;20037;-71
2022/01/04 08:13:35;;;;;;;3.50;0.50;;;5.30;80.10;;;;;;4155498;28;20481;-72
2022/01/04 08:15:35;;;;;;;2.10;0.35;;;5.20;80.00;;;;;;4143494;28;20037;-72
2022/01/04 08:17:36;;;;;;;3.58;0.88;;;5.30;80.10;;;;;;4144074;28;20586;-72
2022/01/04 08:19:37;;;;;;;2.63;0.93;;;5.30;80.00;;;;;;4142697;28;20034;-73
2022/01/04 08:21:38;;;;;;;2.17;0.60;;;5.20;80.00;;;;;;4145268;28;20034;-71
2022/01/04 08:23:38;;;;;;;5.43;0.50;;;5.20;80.00;;;;;;4143969;28;20434;-72
2022/01/04 08:25:39;;;;;;;5.38;0.73;;;5.20;79.90;;;;;;4142497;28;20030;-72
2022/01/04 08:27:40;;;;;;;2.85;0.40;;;5.10;80.00;;;;;;4141949;28;20053;-72
2022/01/04 08:29:40;;;;;;;4.65;0.47;;;5.10;80.00;;;;;;4141889;28;20041;-72
2022/01/04 08:31:41;;;;;;;1.98;0.35;;;5.10;80.10;;;;;;4155621;28;20509;-73
2022/01/04 08:33:42;;;;;;;1.65;0.35;;;5.10;80.10;;;;;;4152132;28;20035;-72
2022/01/04 08:35:42;;;;;;;2.08;0.50;;;5.10;80.20;;;;;;4141533;28;20102;-71
2022/01/04 08:37:43;;;;;;;1.80;0.50;;;5.00;80.30;;;;;;4140904;28;20445;-72
2022/01/04 08:39:44;;;;;;;4.47;0.43;;;5.00;80.40;;;;;;4142276;28;20026;-72
2022/01/04 08:41:50;;;;;;;1.65;0.30;;;5.00;80.50;;;;;;4141597;28;20141;-72
2022/01/04 08:43:50;;;;;;;2.13;0.40;;;4.90;80.40;;;;;;4155227;28;20069;-71
2022/01/04 08:45:51;;;;;;;0.73;0.30;;;5.00;80.70;;;;;;4155681;28;20564;-71
2022/01/04 08:47:52;;;;;;;5.43;0.60;;;4.90;80.70;;;;;;4142026;28;20104;-72
2022/01/04 08:49:52;;;;;;;5.20;0.45;;;4.90;80.80;;;;;;4143587;28;20033;-72
2022/01/04 08:51:53;;;;;;;4.30;0.40;;;4.90;80.90;;;;;;4143475;28;20045;-72
2022/01/04 08:53:53;;;;;;;1.13;0.40;;;4.90;80.90;;;;;;4142436;28;23214;-72
2022/01/04 08:55:56;;;;;;;1.00;0.40;;;4.90;81.00;;;;;;4141927;28;20032;-72
2022/01/04 08:57:57;;;;;;;1.33;0.32;;;4.90;80.90;;;;;;4139244;28;20152;-72
2022/01/04 08:59:57;;;;;;;1.95;0.30;;;4.90;80.70;;;;;;4141654;28;20037;-72
2022/01/04 09:01:58;;;;;;;3.03;0.50;;;4.90;80.40;;;;;;4141165;28;20053;-72
2022/01/04 09:03:59;;;;;;;3.90;0.35;;;4.80;80.10;;;;;;4141024;28;20044;-72
2022/01/04 09:05:59;;;;;;;1.67;0.25;;;4.80;79.90;;;;;;4141920;28;20040;-72
2022/01/04 09:08:01;;;;;;;1.10;0.25;;;4.70;79.70;;;;;;4142388;28;20026;-72
2022/01/04 09:10:02;;;;;;;3.65;0.50;;;4.60;79.60;;;;;;4154920;28;20043;-72
2022/01/04 09:12:03;;;;;;;3.45;0.45;;;4.60;79.60;;;;;;4155406;28;20513;-72
2022/01/04 09:18:48;;;;;;;2.65;0.55;;;4.40;79.80;;;;;;4143079;28;20272;-72
2022/01/04 09:20:49;;;;;;;2.13;0.40;;;4.40;80.00;;;;;;4154415;28;20021;-72
2022/01/04 09:22:49;;;;;;;7.00;0.63;;;4.30;80.10;;;;;;4140348;28;20565;-72
2022/01/04 09:24:50;;;;;;;1.40;0.45;;;4.30;80.30;;;;;;4141946;28;20030;-72
2022/01/04 09:26:51;;;;;;;3.22;0.47;;;4.30;80.40;;;;;;4141940;28;20030;-72
2022/01/04 09:28:51;;;;;;;3.53;0.55;;;4.30;80.60;;;;;;4142476;28;20757;-72
2022/01/04 09:30:52;;;;;;;1.52;0.50;;;4.30;80.70;;;;;;4143021;28;20132;-72
2022/01/04 09:32:53;;;;;;;3.42;0.60;;;4.30;80.80;;;;;;4142608;28;20028;-72
2022/01/04 09:34:53;;;;;;;4.05;0.80;;;4.20;80.80;;;;;;4141440;28;20113;-73
2022/01/04 09:36:54;;;;;;;1.60;0.43;;;4.30;81.00;;;;;;4141418;28;20508;-71
2022/01/04 09:38:54;;;;;;;2.22;0.47;;;4.30;81.10;;;;;;4141027;28;20061;-72
2022/01/04 09:40:55;;;;;;;2.78;0.32;;;4.20;81.10;;;;;;4140910;28;20076;-72
2022/01/04 09:42:56;;;;;;;4.72;0.57;;;4.20;81.20;;;;;;4141698;28;20037;-72
2022/01/04 09:44:57;;;;;;;6.60;0.60;;;4.20;81.20;;;;;;4138965;28;20034;-72
2022/01/04 09:47:02;;;;;;;5.53;0.70;;;4.20;81.10;;;;;;4138416;28;20041;-72
2022/01/04 09:49:02;;;;;;;2.22;0.50;;;4.20;81.10;;;;;;4142050;28;20030;-72
2022/01/04 09:51:03;;;;;;;7.05;0.70;;;4.20;81.00;;;;;;4140384;28;20125;-72
2022/01/04 09:53:06;;;;;;;5.97;0.60;;;4.20;80.90;;;;;;4141745;28;20049;-72
2022/01/04 09:55:07;;;;;;;;;;;4.20;81.00;;;;;;4152029;28;20083;-72
2022/01/04 09:57:07;;;;;;;3.33;0.90;;;4.10;81.00;;;;;;4154803;28;19913;-72
2022/01/04 09:59:08;;;;;;;5.40;0.57;;;4.10;80.90;;;;;;4142553;28;20026;-72
2022/01/04 10:01:25;;;;;;;4.40;1.23;;;4.10;81.00;;;;;;4141838;28;20030;-72
2022/01/04 10:03:29;;;;;;;4.07;0.80;;;4.10;81.70;;;;;;4140668;28;20933;-72
2022/01/04 10:05:30;;;;;;;4.70;0.65;;;4.00;81.20;;;;;;4122655;28;20600;-72
2022/01/04 10:07:30;;;;;;;8.00;0.68;;;4.00;81.30;;;;;;4141117;28;20026;-71
2022/01/04 10:09:52;;;;;;;8.27;0.90;;;4.10;81.50;;;;;;4141148;28;20030;-72
2022/01/04 10:11:54;;;;;;;5.97;0.85;;;4.10;81.60;;;;;;4156093;28;20033;-72
2022/01/04 10:13:55;;;;;;;4.43;0.85;;;4.10;81.60;;;;;;4137848;28;20034;-71
2022/01/04 10:15:56;;;;;;;4.60;0.88;;;4.10;81.70;;;;;;4109219;28;20495;-72
2022/01/04 10:17:56;;;;;;;10.20;0.93;;;4.10;81.60;;;;;;4141465;28;20057;-72
2022/01/04 10:19:58;;;;;;;9.85;0.70;;;4.10;81.60;;;;;;4138650;28;20573;-72
2022/01/04 10:22:12;;;;;;;3.72;0.68;;;4.00;81.60;;;;;;4154987;28;20033;-72
2022/01/04 10:24:13;;;;;;;5.88;0.70;;;4.10;81.60;;;;;;4140023;28;20109;-72
2022/01/04 10:26:14;;;;;;;4.10;1.23;;;4.00;81.60;;;;;;4143064;28;20065;-71
2022/01/04 10:28:31;;;;;;;3.80;0.77;;;4.00;81.70;;;;;;4126927;28;20034;-72
2022/01/04 10:30:33;;;;;;;4.72;0.60;;;4.00;81.80;;;;;;4142190;28;20045;-72
2022/01/04 10:32:43;;;;;;;4.15;0.73;;;4.00;81.80;;;;;;4137752;28;20045;-71
2022/01/04 10:34:47;;;;;;;1.83;0.60;;;4.00;81.70;;;;;;4141128;28;20371;-72
2022/01/04 10:36:49;;;;;;;5.30;1.13;;;4.00;81.70;;;;;;4135892;28;21017;-72
2022/01/04 10:38:50;;;;;;;6.50;0.85;;;4.00;81.80;;;;;;4141189;28;20055;-72
2022/01/04 10:41:11;;;;;;;5.00;1.27;;;4.00;81.80;;;;;;4154798;28;20072;-71
2022/01/04 10:43:13;;;;;;;4.95;0.80;;;4.00;81.90;;;;;;4155934;28;20026;-71
2022/01/04 10:45:28;;;;;;;5.13;0.90;;;4.00;82.00;;;;;;4155295;28;20091;-72
2022/01/04 10:47:29;;;;;;;6.35;1.00;;;4.00;82.00;;;;;;4140731;28;20049;-71
2022/01/04 10:49:32;;;;;;;7.30;0.80;;;3.90;82.10;;;;;;4153978;28;20029;-71
2022/01/04 10:51:32;;;;;;;7.57;1.02;;;4.00;82.20;;;;;;4138260;28;20132;-71